createdAt,value
2022-12-15T00:02:27.797Z,28.33
2022-12-15T00:05:14.001Z,27.33
2022-12-15T00:08:00.235Z,30.35
2022-12-15T00:10:46.099Z,27.42
2022-12-15T00:13:33.003Z,28.15
2022-12-15T00:16:19.503Z,23.42
2022-12-15T00:19:07.212Z,26.10
2022-12-15T00:21:53.155Z,26.73
2022-12-15T00:24:38.488Z,26.50
2022-12-15T00:27:24.559Z,28.27
2022-12-15T00:30:09.964Z,24.70
2022-12-15T00:32:55.731Z,27.52
2022-12-15T00:35:42.394Z,25.60
2022-12-15T00:38:30.432Z,28.33
2022-12-15T00:41:00.261Z,26.27
2022-12-15T00:43:29.112Z,22.48
2022-12-15T00:46:15.263Z,28.50
2022-12-15T00:48:43.940Z,23.98
2022-12-15T00:51:13.486Z,25.30
2022-12-15T00:53:59.858Z,26.65
2022-12-15T00:56:46.189Z,25.52
2022-12-15T00:59:35.456Z,24.70
2022-12-15T01:02:24.488Z,26.55
2022-12-15T01:05:10.757Z,24.08
2022-12-15T01:07:58.926Z,24.60
2022-12-15T01:10:47.741Z,25.17
2022-12-15T01:13:34.057Z,23.08
2022-12-15T01:16:19.995Z,29.77
2022-12-15T01:19:06.078Z,23.52
2022-12-15T01:21:35.246Z,27.05
2022-12-15T01:24:05.620Z,26.23
2022-12-15T01:26:35.049Z,24.33
2022-12-15T01:29:03.373Z,23.25
2022-12-15T01:31:32.192Z,23.23
2022-12-15T01:34:01.047Z,24.73
2022-12-15T01:36:29.475Z,23.60
2022-12-15T01:38:57.968Z,21.17
2022-12-15T01:41:27.273Z,24.63
2022-12-15T01:43:55.759Z,24.40
2022-12-15T01:46:26.067Z,23.92
2022-12-15T01:49:01.542Z,22.02
2022-12-15T01:51:34.733Z,25.20
2022-12-15T01:54:07.828Z,22.92
2022-12-15T01:56:41.877Z,24.40
2022-12-15T01:59:15.448Z,25.17
2022-12-15T02:01:43.829Z,22.02
2022-12-15T02:04:20.712Z,26.48
2022-12-15T02:06:48.956Z,28.10
2022-12-15T02:09:18.783Z,27.52
2022-12-15T02:12:01.789Z,25.77
2022-12-15T02:14:40.588Z,28.88
2022-12-15T02:17:17.668Z,24.38
2022-12-15T02:20:26.035Z,26.70
2022-12-15T02:23:30.477Z,24.17
2022-12-15T02:26:20.363Z,26.05
2022-12-15T02:28:57.661Z,28.98
2022-12-15T02:31:49.738Z,28.52
2022-12-15T02:34:27.853Z,31.92
2022-12-15T02:37:00.652Z,27.30
2022-12-15T02:39:28.741Z,26.05
2022-12-15T02:41:57.173Z,26.98
2022-12-15T02:44:29.813Z,25.80
2022-12-15T02:47:24.498Z,27.27
2022-12-15T02:50:06.441Z,31.02
2022-12-15T02:52:51.948Z,30.10
2022-12-15T02:55:28.496Z,30.63
2022-12-15T02:58:02.352Z,28.63
2022-12-15T03:00:35.251Z,33.30
2022-12-15T03:03:05.336Z,32.35
2022-12-15T03:05:33.650Z,33.10
2022-12-15T03:08:02.364Z,29.90
2022-12-15T03:10:30.920Z,31.70
2022-12-15T03:13:00.014Z,34.17
2022-12-15T03:15:34.928Z,36.72
2022-12-15T03:18:04.996Z,37.20
2022-12-15T03:20:33.306Z,36.25
2022-12-15T03:23:01.866Z,36.47
2022-12-15T03:25:30.401Z,37.38
2022-12-15T03:27:58.540Z,34.92
2022-12-15T03:30:26.579Z,37.80
2022-12-15T03:32:54.606Z,37.42
2022-12-15T03:35:24.383Z,41.15
2022-12-15T03:37:52.634Z,37.00
2022-12-15T03:40:20.941Z,41.60
2022-12-15T03:42:49.179Z,37.80
2022-12-15T03:45:18.233Z,38.30
2022-12-15T03:47:47.524Z,43.08
2022-12-15T03:50:18.427Z,36.67
2022-12-15T03:52:52.355Z,40.22
2022-12-15T03:55:20.921Z,39.45
2022-12-15T03:57:49.297Z,43.45
2022-12-15T04:00:19.090Z,38.72
2022-12-15T04:02:47.579Z,47.08
2022-12-15T04:05:22.642Z,40.92
2022-12-15T04:07:52.208Z,50.63
2022-12-15T04:10:20.371Z,44.58
2022-12-15T04:12:48.315Z,44.60
2022-12-15T04:15:16.532Z,44.38
2022-12-15T04:17:44.490Z,46.28
2022-12-15T04:20:12.122Z,44.47
2022-12-15T04:22:40.964Z,39.50
2022-12-15T04:25:30.321Z,50.88
2022-12-15T04:28:16.198Z,49.15
2022-12-15T04:31:06.408Z,48.47
2022-12-15T04:33:52.682Z,45.92
2022-12-15T04:36:38.404Z,40.72
2022-12-15T04:39:24.177Z,44.63
2022-12-15T04:42:12.942Z,46.03
2022-12-15T04:44:58.268Z,43.58
2022-12-15T04:47:43.550Z,42.03
2022-12-15T04:50:29.023Z,44.50
2022-12-15T04:53:14.535Z,41.75
2022-12-15T04:55:59.724Z,44.60
2022-12-15T04:58:46.727Z,45.17
2022-12-15T05:01:32.148Z,46.97
2022-12-15T05:04:17.695Z,44.70
2022-12-15T05:07:03.176Z,48.45
2022-12-15T05:09:48.519Z,42.72
2022-12-15T05:12:33.774Z,44.13
2022-12-15T05:15:20.281Z,40.78
2022-12-15T05:18:05.644Z,39.70
2022-12-15T05:20:50.948Z,46.22
2022-12-15T05:23:36.760Z,43.30
2022-12-15T05:26:22.241Z,43.97
2022-12-15T05:29:07.427Z,46.45
2022-12-15T05:31:51.731Z,42.22
2022-12-15T05:34:21.349Z,40.83
2022-12-15T05:36:49.789Z,38.25
2022-12-15T05:39:17.804Z,35.72
2022-12-15T05:41:45.821Z,36.83
2022-12-15T05:44:13.823Z,32.90
2022-12-15T05:46:43.448Z,33.97
2022-12-15T05:49:14.839Z,37.28
2022-12-15T05:51:44.746Z,34.92
2022-12-15T05:54:15.304Z,36.60
2022-12-15T05:56:43.296Z,37.65
2022-12-15T05:59:11.268Z,35.42
2022-12-15T06:01:39.357Z,35.03
2022-12-15T06:04:08.779Z,35.05
2022-12-15T06:06:36.808Z,36.75
2022-12-15T06:09:04.960Z,35.88
2022-12-15T06:11:32.933Z,36.83
2022-12-15T06:14:00.889Z,45.70
2022-12-15T06:16:29.031Z,44.33
2022-12-15T06:18:59.156Z,37.50
2022-12-15T06:21:30.700Z,43.00
2022-12-15T06:23:59.095Z,39.37
2022-12-15T06:26:28.807Z,38.70
2022-12-15T06:28:58.128Z,35.65
2022-12-15T06:31:27.187Z,41.85
2022-12-15T06:34:01.258Z,35.65
2022-12-15T06:36:31.645Z,40.83
2022-12-15T06:39:00.480Z,39.25
2022-12-15T06:41:30.235Z,36.88
2022-12-15T06:43:58.393Z,40.97
2022-12-15T06:46:27.059Z,41.20
2022-12-15T06:48:55.263Z,42.38
2022-12-15T06:51:23.739Z,43.08
2022-12-15T06:53:54.121Z,46.08
2022-12-15T06:56:32.195Z,48.10
2022-12-15T06:59:01.551Z,43.67
2022-12-15T07:01:30.021Z,41.45
2022-12-15T07:04:00.114Z,41.03
2022-12-15T07:06:29.569Z,42.60
2022-12-15T07:08:59.069Z,44.90
2022-12-15T07:11:27.040Z,39.95
2022-12-15T07:13:55.680Z,47.60
2022-12-15T07:16:24.635Z,42.53
2022-12-15T07:18:52.592Z,45.20
2022-12-15T07:21:20.808Z,44.47
2022-12-15T07:23:57.269Z,43.40
2022-12-15T07:26:27.619Z,46.38
2022-12-15T07:28:55.979Z,42.80
2022-12-15T07:31:24.387Z,45.42
2022-12-15T07:33:54.481Z,39.50
2022-12-15T07:36:22.713Z,43.25
2022-12-15T07:38:51.553Z,42.88
2022-12-15T07:41:21.233Z,45.78
2022-12-15T07:43:50.560Z,42.05
2022-12-15T07:46:19.358Z,42.67
2022-12-15T07:48:50.344Z,44.53
2022-12-15T07:51:20.599Z,47.28
2022-12-15T07:53:50.166Z,47.83
2022-12-15T07:56:20.705Z,54.78
2022-12-15T07:58:50.237Z,43.78
2022-12-15T08:01:19.473Z,40.75
2022-12-15T08:03:48.152Z,40.75
2022-12-15T08:06:16.860Z,43.97
2022-12-15T08:08:50.692Z,45.47
2022-12-15T08:11:20.961Z,41.58
2022-12-15T08:14:10.361Z,41.05
2022-12-15T08:16:39.135Z,42.60
2022-12-15T08:19:08.378Z,40.00
2022-12-15T08:21:36.450Z,42.50
2022-12-15T08:24:05.013Z,43.67
2022-12-15T08:26:32.962Z,43.65
2022-12-15T08:29:40.465Z,40.30
2022-12-15T08:31:53.328Z,40.60
2022-12-15T08:34:21.734Z,42.20
2022-12-15T08:36:49.639Z,41.38
2022-12-15T08:39:26.760Z,43.85
2022-12-15T08:41:54.816Z,45.63
2022-12-15T08:44:24.306Z,43.17
2022-12-15T08:46:52.397Z,44.95
2022-12-15T08:49:22.416Z,49.83
2022-12-15T08:51:51.668Z,48.53
2022-12-15T08:54:20.547Z,47.67
2022-12-15T08:56:48.834Z,46.08
2022-12-15T08:59:17.051Z,54.92
2022-12-15T09:01:46.474Z,47.72
2022-12-15T09:04:15.305Z,53.30
2022-12-15T09:06:43.996Z,48.58
2022-12-15T09:09:16.571Z,48.55
2022-12-15T09:11:44.569Z,46.00
2022-12-15T09:14:12.639Z,44.92
2022-12-15T09:16:40.962Z,45.83
2022-12-15T09:19:11.273Z,45.67
2022-12-15T09:21:39.864Z,46.38
2022-12-15T09:24:08.204Z,43.75
2022-12-15T09:26:36.373Z,42.03
2022-12-15T09:29:04.417Z,38.08
2022-12-15T09:31:34.711Z,45.63
2022-12-15T09:34:03.771Z,45.42
2022-12-15T09:36:33.583Z,42.35
2022-12-15T09:39:03.067Z,42.78
2022-12-15T09:41:54.737Z,45.03
2022-12-15T09:44:41.536Z,40.70
2022-12-15T09:47:17.362Z,47.08
2022-12-15T09:49:54.067Z,40.63
2022-12-15T09:52:26.940Z,42.45
2022-12-15T09:54:55.239Z,44.80
2022-12-15T09:57:31.351Z,45.47
2022-12-15T10:00:09.986Z,39.80
2022-12-15T10:03:22.939Z,43.05
2022-12-15T10:06:20.122Z,39.13
2022-12-15T10:08:55.077Z,41.78
2022-12-15T10:11:41.467Z,40.53
2022-12-15T10:14:19.850Z,44.55
2022-12-15T10:16:59.624Z,42.13
2022-12-15T10:19:35.111Z,36.47
2022-12-15T10:22:03.225Z,43.90
2022-12-15T10:27:49.190Z,43.25
2022-12-15T10:30:17.721Z,62.75
2022-12-15T10:32:51.465Z,47.58
2022-12-15T10:35:22.722Z,43.85
2022-12-15T10:37:50.879Z,48.00
2022-12-15T10:40:42.637Z,42.58
2022-12-15T10:43:15.606Z,43.70
2022-12-15T10:45:43.770Z,42.15
2022-12-15T10:48:20.660Z,43.28
2022-12-15T10:50:50.107Z,42.13
2022-12-15T10:53:39.672Z,44.83
2022-12-15T10:56:09.502Z,38.38
2022-12-15T10:58:50.077Z,44.22
2022-12-15T11:01:20.726Z,42.67
2022-12-15T11:03:52.654Z,43.45
2022-12-15T11:06:22.819Z,39.22
2022-12-15T11:08:52.426Z,39.30
2022-12-15T11:11:50.828Z,38.42
2022-12-15T11:14:23.916Z,40.95
2022-12-15T11:16:55.797Z,38.95
2022-12-15T11:19:36.819Z,41.13
2022-12-15T11:22:13.811Z,38.90
2022-12-15T11:24:46.480Z,42.25
2022-12-15T11:27:24.032Z,41.33
2022-12-15T11:30:02.679Z,45.33
2022-12-15T11:32:36.015Z,40.67
2022-12-15T11:35:04.908Z,48.53
2022-12-15T11:37:44.238Z,40.58
2022-12-15T11:40:40.534Z,41.72
2022-12-15T11:43:35.604Z,43.35
2022-12-15T11:46:20.243Z,44.22
2022-12-15T11:49:13.091Z,40.55
2022-12-15T11:54:25.542Z,42.33
2022-12-15T11:57:00.681Z,44.67
2022-12-15T11:59:44.787Z,47.50
2022-12-15T12:03:04.451Z,44.92
2022-12-15T12:05:42.898Z,40.80
2022-12-15T12:08:25.621Z,43.92
2022-12-15T12:11:16.712Z,46.05
2022-12-15T12:14:00.888Z,48.40
2022-12-15T12:16:39.876Z,41.70
2022-12-15T12:19:12.121Z,44.92
2022-12-15T12:21:44.790Z,45.20
2022-12-15T12:24:19.994Z,49.85
2022-12-15T12:26:54.771Z,52.53
2022-12-15T12:29:29.973Z,45.85
2022-12-15T12:32:08.763Z,53.03
2022-12-15T12:34:51.152Z,54.00
2022-12-15T12:37:23.868Z,51.33
2022-12-15T12:42:26.191Z,56.88
2022-12-15T12:44:54.567Z,55.88
2022-12-15T12:47:29.089Z,58.70
2022-12-15T12:50:00.108Z,56.47
2022-12-15T12:52:31.124Z,53.75
2022-12-15T12:55:01.886Z,64.88
2022-12-15T12:57:41.297Z,65.90
2022-12-15T13:00:27.400Z,65.20
2022-12-15T13:03:17.437Z,59.67
2022-12-15T13:05:51.625Z,64.07
2022-12-15T13:08:52.735Z,67.22
2022-12-15T13:11:55.246Z,67.93
2022-12-15T13:14:30.491Z,71.95
2022-12-15T13:20:20.547Z,70.60
2022-12-15T13:22:48.815Z,66.82
2022-12-15T13:25:40.897Z,78.05
2022-12-15T13:28:31.223Z,81.68
2022-12-15T13:31:34.273Z,82.63
2022-12-15T13:34:22.110Z,83.50
2022-12-15T13:36:55.919Z,93.70
2022-12-15T13:39:52.163Z,85.88
2022-12-15T13:42:35.863Z,92.32
2022-12-15T13:45:39.784Z,96.32
2022-12-15T13:48:16.855Z,89.88
2022-12-15T13:50:53.295Z,86.88
2022-12-15T13:53:26.378Z,85.13
2022-12-15T13:56:04.729Z,86.32
2022-12-15T13:58:40.278Z,90.80
2022-12-15T14:01:20.922Z,87.53
2022-12-15T14:04:05.707Z,82.78
2022-12-15T14:06:39.049Z,101.22
2022-12-15T14:09:15.129Z,94.72
2022-12-15T14:11:55.273Z,100.45
2022-12-15T14:14:26.517Z,152.10
2022-12-15T14:16:58.846Z,97.47
2022-12-15T14:22:33.856Z,90.82
2022-12-15T14:25:20.820Z,94.03
2022-12-15T14:27:51.844Z,98.43
2022-12-15T14:30:38.631Z,95.75
2022-12-15T14:33:09.486Z,110.45
2022-12-15T14:35:41.505Z,134.38
2022-12-15T14:38:15.689Z,99.82
2022-12-15T14:40:50.896Z,103.32
2022-12-15T14:43:22.584Z,94.97
2022-12-15T14:45:55.688Z,94.10
2022-12-15T14:48:42.116Z,84.18
2022-12-15T14:51:13.378Z,96.90
2022-12-15T14:53:43.817Z,97.53
2022-12-15T14:56:30.080Z,157.48
2022-12-15T14:59:04.630Z,87.65
2022-12-15T15:01:40.013Z,125.78
2022-12-15T15:04:29.055Z,108.50
2022-12-15T15:06:59.884Z,115.35
2022-12-15T15:09:29.979Z,88.00
2022-12-15T15:12:03.554Z,137.00
2022-12-15T15:14:34.886Z,100.72
2022-12-15T15:17:09.403Z,89.50
2022-12-15T15:19:39.982Z,92.68
2022-12-15T15:22:24.274Z,81.43
2022-12-15T15:24:53.614Z,89.82
2022-12-15T15:27:29.326Z,109.80
2022-12-15T15:30:21.202Z,87.28
2022-12-15T15:32:54.460Z,79.88
2022-12-15T15:35:24.117Z,105.95
2022-12-15T15:37:54.107Z,107.70
2022-12-15T15:40:22.129Z,111.85
2022-12-15T15:42:51.925Z,93.38
2022-12-15T15:45:20.175Z,90.47
2022-12-15T15:47:50.963Z,115.20
2022-12-15T15:50:25.930Z,96.72
2022-12-15T15:52:54.200Z,110.05
2022-12-15T15:55:27.481Z,88.53
2022-12-15T15:57:56.997Z,89.28
2022-12-15T16:00:26.623Z,101.80
2022-12-15T16:02:54.748Z,102.57
2022-12-15T16:05:24.101Z,76.15
2022-12-15T16:07:52.052Z,74.38
2022-12-15T16:10:21.451Z,79.50
2022-12-15T16:12:51.901Z,91.47
2022-12-15T16:15:25.924Z,85.95
2022-12-15T16:17:54.595Z,102.35
2022-12-15T16:20:24.824Z,102.03
2022-12-15T16:22:56.506Z,114.95
2022-12-15T16:25:33.133Z,95.65
2022-12-15T16:28:14.093Z,100.70
2022-12-15T16:30:44.410Z,94.20
2022-12-15T16:33:13.395Z,99.25
2022-12-15T16:35:42.708Z,110.22
2022-12-15T16:38:16.757Z,101.63
2022-12-15T16:40:44.788Z,98.30
2022-12-15T16:43:16.950Z,112.70
2022-12-15T16:45:48.731Z,89.10
2022-12-15T16:48:17.135Z,94.07
2022-12-15T16:50:47.139Z,95.60
2022-12-15T16:53:18.199Z,93.25
2022-12-15T16:55:53.635Z,92.32
2022-12-15T16:58:22.374Z,107.95
2022-12-15T17:00:53.788Z,110.07
2022-12-15T17:03:25.617Z,88.40
2022-12-15T17:05:56.175Z,89.45
2022-12-15T17:08:28.018Z,120.47
2022-12-15T17:10:56.223Z,85.65
2022-12-15T17:13:36.642Z,103.78
2022-12-15T17:16:12.398Z,88.85
2022-12-15T17:18:40.716Z,87.57
2022-12-15T17:21:15.670Z,84.43
2022-12-15T17:23:46.208Z,88.28
2022-12-15T17:26:27.701Z,138.02
2022-12-15T17:28:58.768Z,85.88
2022-12-15T17:31:34.623Z,95.40
2022-12-15T17:34:09.509Z,109.63
2022-12-15T17:36:38.149Z,118.10
2022-12-15T17:39:11.107Z,88.93
2022-12-15T17:44:34.314Z,98.28
2022-12-15T17:47:06.185Z,90.72
2022-12-15T17:49:37.297Z,78.43
2022-12-15T17:52:09.172Z,119.65
2022-12-15T17:54:37.331Z,91.65
2022-12-15T17:57:05.316Z,102.13
2022-12-15T17:59:33.527Z,93.70
2022-12-15T18:02:01.611Z,91.10
2022-12-15T18:04:31.352Z,86.55
2022-12-15T18:07:02.089Z,82.97
2022-12-15T18:09:31.450Z,80.82
2022-12-15T18:11:59.539Z,84.70
2022-12-15T18:14:28.596Z,80.07
2022-12-15T18:16:56.924Z,81.95
2022-12-15T18:19:28.990Z,88.03
2022-12-15T18:22:01.151Z,82.80
2022-12-15T18:24:29.289Z,80.88
2022-12-15T18:26:57.379Z,81.20
2022-12-15T18:29:25.438Z,78.53
2022-12-15T18:31:53.579Z,82.32
2022-12-15T18:34:22.867Z,74.03
2022-12-15T18:36:51.501Z,81.50
2022-12-15T18:39:23.444Z,79.28
2022-12-15T18:41:52.510Z,78.53
2022-12-15T18:44:23.818Z,82.40
2022-12-15T18:46:52.018Z,69.43
2022-12-15T18:49:21.700Z,70.20
2022-12-15T18:51:50.380Z,68.82
2022-12-15T18:54:22.898Z,71.93
2022-12-15T18:59:20.481Z,62.38
2022-12-15T19:01:49.779Z,57.92
2022-12-15T19:04:17.908Z,60.53
2022-12-15T19:06:46.262Z,74.78
2022-12-15T19:09:18.360Z,84.13
2022-12-15T19:12:17.610Z,68.63
2022-12-15T19:14:46.896Z,79.75
2022-12-15T19:17:34.184Z,73.20
2022-12-15T19:20:20.263Z,100.40
2022-12-15T19:22:49.747Z,87.90
2022-12-15T19:25:25.551Z,73.07
2022-12-15T19:27:59.173Z,77.15
2022-12-15T19:30:28.790Z,106.20
2022-12-15T19:32:57.201Z,85.88
2022-12-15T19:35:25.793Z,88.03
2022-12-15T19:37:55.452Z,84.05
2022-12-15T19:40:27.373Z,72.15
2022-12-15T19:42:57.069Z,79.10
2022-12-15T19:45:27.140Z,61.80
2022-12-15T19:47:55.420Z,71.32
2022-12-15T19:50:25.214Z,63.45
2022-12-15T19:52:55.861Z,61.83
2022-12-15T19:55:27.446Z,58.30
2022-12-15T19:57:57.107Z,58.50
2022-12-15T20:00:26.915Z,64.45
2022-12-15T20:02:56.623Z,62.15
2022-12-15T20:05:26.511Z,61.90
2022-12-15T20:07:55.391Z,48.42
2022-12-15T20:10:32.207Z,54.88
2022-12-15T20:13:03.215Z,61.85
2022-12-15T20:15:31.244Z,59.33
2022-12-15T20:17:59.272Z,50.05
2022-12-15T20:20:29.760Z,45.03
2022-12-15T20:23:02.255Z,46.88
2022-12-15T20:28:00.541Z,39.33
2022-12-15T20:30:32.712Z,60.97
2022-12-15T20:33:01.233Z,48.13
2022-12-15T20:35:31.494Z,42.47
2022-12-15T20:37:59.984Z,37.30
2022-12-15T20:40:29.969Z,40.10
2022-12-15T20:42:58.532Z,45.33
2022-12-15T20:45:27.655Z,37.10
2022-12-15T20:47:57.310Z,44.28
2022-12-15T20:50:28.932Z,39.42
2022-12-15T20:52:57.246Z,42.60
2022-12-15T20:55:25.426Z,41.78
2022-12-15T20:57:53.540Z,41.05
2022-12-15T21:00:22.050Z,36.10
2022-12-15T21:02:51.978Z,42.78
2022-12-15T21:05:23.750Z,46.92
2022-12-15T21:07:52.472Z,40.03
2022-12-15T21:10:22.249Z,38.83
2022-12-15T21:12:51.292Z,36.95
2022-12-15T21:15:21.917Z,34.25
2022-12-15T21:18:11.052Z,35.83
2022-12-15T21:20:43.258Z,35.55
2022-12-15T21:23:20.486Z,39.50
2022-12-15T21:25:48.886Z,34.25
2022-12-15T21:28:16.924Z,45.97
2022-12-15T21:30:45.620Z,33.20
2022-12-15T21:33:13.805Z,35.28
2022-12-15T21:35:46.015Z,31.65
2022-12-15T21:38:33.170Z,33.55
2022-12-15T21:41:03.646Z,33.35
2022-12-15T21:43:34.196Z,36.83
2022-12-15T21:46:04.111Z,36.28
2022-12-15T21:48:49.348Z,37.15
2022-12-15T21:51:19.286Z,37.88
2022-12-15T21:53:47.561Z,37.70
2022-12-15T21:56:17.301Z,36.83
2022-12-15T21:58:45.928Z,36.60
2022-12-15T22:01:15.654Z,32.75
2022-12-15T22:03:45.833Z,35.08
2022-12-15T22:06:20.661Z,37.63
2022-12-15T22:08:49.299Z,35.45
2022-12-15T22:11:22.072Z,32.60
2022-12-15T22:13:51.534Z,35.70
2022-12-15T22:16:20.757Z,31.42
2022-12-15T22:18:51.078Z,34.65
2022-12-15T22:21:21.484Z,31.13
2022-12-15T22:23:50.838Z,36.42
2022-12-15T22:26:22.774Z,30.45
2022-12-15T22:28:51.566Z,28.30
2022-12-15T22:31:19.814Z,30.00
2022-12-15T22:33:47.966Z,30.45
2022-12-15T22:36:15.860Z,27.00
2022-12-15T22:38:46.840Z,27.95
2022-12-15T22:41:19.931Z,25.70
2022-12-15T22:43:51.182Z,23.45
2022-12-15T22:46:21.522Z,23.75
2022-12-15T22:48:49.778Z,22.20
2022-12-15T22:51:19.787Z,25.52
2022-12-15T22:53:49.167Z,25.02
2022-12-15T22:56:25.739Z,23.00
2022-12-15T22:59:18.654Z,24.00
2022-12-15T23:01:46.907Z,19.75
2022-12-15T23:04:15.347Z,20.63
2022-12-15T23:06:43.289Z,23.73
2022-12-15T23:09:12.968Z,19.17
2022-12-15T23:11:41.296Z,19.50
2022-12-15T23:14:11.516Z,17.50
2022-12-15T23:16:38.709Z,23.33
2022-12-15T23:19:08.622Z,24.30
2022-12-15T23:21:37.952Z,20.98
2022-12-15T23:24:06.223Z,17.38
2022-12-15T23:26:35.484Z,19.85
2022-12-15T23:29:11.738Z,25.75
2022-12-15T23:31:39.969Z,23.77
2022-12-15T23:34:08.466Z,22.38
2022-12-15T23:36:36.350Z,21.65
2022-12-15T23:39:04.372Z,20.20
2022-12-15T23:41:32.970Z,21.08
2022-12-15T23:44:02.440Z,18.05
2022-12-15T23:46:30.530Z,21.23
2022-12-15T23:48:59.939Z,17.15
2022-12-15T23:51:27.808Z,23.45
2022-12-15T23:53:55.818Z,24.58
2022-12-15T23:56:25.292Z,19.27
2022-12-15T23:58:56.739Z,18.42
